Time;durP1;ratioP1;P1;durP2;ratioP2;P2;SDS_P1;SDS_P2;PMS_P1;PMS_P2;Temp;Humidity;BMP_temperature;BMP_pressure;BME280_temperature;BME280_humidity;BME280_pressure;Samples;Min_cycle;Max_cycle;Signal;HPM_P1;HPM_P2
2023/04/22 00:00:17;;;;;;;2.10;1.70;;;15.60;53.90;;;;;;5127020;27;46630;-72
2023/04/22 00:02:44;;;;;;;2.50;1.73;;;15.60;53.80;;;;;;5130006;27;45446;-72
2023/04/22 00:05:12;;;;;;;1.90;1.80;;;15.60;53.80;;;;;;5130261;27;45291;-72
2023/04/22 00:07:39;;;;;;;2.72;1.80;;;15.60;53.90;;;;;;5130782;27;45301;-72
2023/04/22 00:10:08;;;;;;;2.33;1.83;;;15.60;53.90;;;;;;5129559;27;46679;-72
2023/04/22 00:12:35;;;;;;;2.35;1.85;;;15.60;53.90;;;;;;5130326;27;45364;-72
2023/04/22 00:15:02;;;;;;;2.65;1.85;;;15.60;53.90;;;;;;5130521;27;45144;-71
2023/04/22 00:17:29;;;;;;;2.15;1.85;;;15.60;53.90;;;;;;5130657;27;45193;-72
2023/04/22 00:19:56;;;;;;;2.38;2.17;;;15.60;53.90;;;;;;5130293;27;45202;-72
2023/04/22 00:22:22;;;;;;;1.65;1.52;;;15.50;53.90;;;;;;5129870;27;45432;-71
2023/04/22 00:24:49;;;;;;;2.45;2.10;;;15.50;53.90;;;;;;5130592;27;45249;-72
2023/04/22 00:27:17;;;;;;;2.03;1.80;;;15.50;53.90;;;;;;5130434;27;45471;-72
2023/04/22 00:29:44;;;;;;;2.30;1.60;;;15.50;53.90;;;;;;5130044;27;46726;-72
2023/04/22 00:32:11;;;;;;;1.98;1.80;;;15.50;53.90;;;;;;5129981;27;45295;-71
2023/04/22 00:34:38;;;;;;;2.33;1.83;;;15.50;53.90;;;;;;5130156;27;45348;-71
2023/04/22 00:37:05;;;;;;;1.88;1.73;;;15.50;54.00;;;;;;5130227;27;45846;-71
2023/04/22 00:39:31;;;;;;;2.65;1.50;;;15.50;53.90;;;;;;5130137;27;46707;-71
2023/04/22 00:41:58;;;;;;;2.28;1.92;;;15.40;53.90;;;;;;5130150;27;45387;-71
2023/04/22 00:44:26;;;;;;;2.00;1.80;;;15.50;54.00;;;;;;5130090;27;45395;-71
2023/04/22 00:46:53;;;;;;;1.80;1.60;;;15.40;53.90;;;;;;5129564;27;45518;-71
2023/04/22 00:49:20;;;;;;;3.08;1.83;;;15.40;54.00;;;;;;5128849;27;45381;-71
2023/04/22 00:51:47;;;;;;;2.40;1.63;;;15.40;54.00;;;;;;5129817;27;45330;-71
2023/04/22 00:54:14;;;;;;;1.80;1.70;;;15.40;54.00;;;;;;5129052;27;45364;-71
2023/04/22 00:56:41;;;;;;;2.42;1.85;;;15.40;54.00;;;;;;5130261;27;45269;-72
2023/04/22 00:59:08;;;;;;;2.35;1.77;;;15.40;54.00;;;;;;5129526;27;45365;-72
2023/04/22 01:01:36;;;;;;;2.30;1.70;;;15.30;54.00;;;;;;5129519;27;45333;-71
2023/04/22 01:04:03;;;;;;;2.35;1.80;;;15.40;54.00;;;;;;5129676;27;45269;-71
2023/04/22 01:06:31;;;;;;;2.30;1.80;;;15.40;54.10;;;;;;5129965;27;45415;-71
2023/04/22 01:08:58;;;;;;;2.17;1.80;;;15.30;54.00;;;;;;5129668;27;46947;-72
2023/04/22 01:11:24;;;;;;;2.10;1.80;;;15.30;54.00;;;;;;5128590;27;45304;-71
2023/04/22 01:13:51;;;;;;;2.00;1.40;;;15.30;54.00;;;;;;5129078;27;45359;-71
2023/04/22 01:16:18;;;;;;;2.85;1.60;;;15.30;54.60;;;;;;5129696;27;45238;-72
2023/04/22 01:18:46;;;;;;;2.47;1.80;;;15.30;54.10;;;;;;5129318;27;45241;-72
2023/04/22 01:21:13;;;;;;;1.73;1.50;;;15.30;54.10;;;;;;5129444;27;45340;-71
2023/04/22 01:23:41;;;;;;;1.80;1.70;;;15.20;54.10;;;;;;5129792;27;45351;-71
2023/04/22 01:26:08;;;;;;;2.35;1.85;;;15.20;54.10;;;;;;5129629;27;45268;-72
2023/04/22 01:28:35;;;;;;;2.08;1.52;;;15.20;54.10;;;;;;5128823;27;46390;-72
2023/04/22 01:31:01;;;;;;;2.63;1.60;;;15.20;54.10;;;;;;5128697;27;45335;-71
2023/04/22 01:33:28;;;;;;;2.00;1.67;;;15.20;54.10;;;;;;5129446;27;45373;-71
2023/04/22 01:35:55;;;;;;;2.35;1.80;;;15.20;54.10;;;;;;5129232;27;45343;-72
2023/04/22 01:38:22;;;;;;;1.70;1.52;;;15.20;54.10;;;;;;5127906;27;46560;-71
2023/04/22 01:40:50;;;;;;;1.38;1.27;;;15.20;54.10;;;;;;5129108;27;45276;-71
2023/04/22 01:43:17;;;;;;;1.92;1.70;;;15.10;54.00;;;;;;5129059;27;45248;-71
2023/04/22 01:45:43;;;;;;;4.03;1.67;;;15.10;54.10;;;;;;5129123;27;45489;-72
2023/04/22 01:48:10;;;;;;;3.15;1.67;;;15.10;54.00;;;;;;5128980;27;46635;-71
2023/04/22 01:50:37;;;;;;;2.47;1.42;;;15.10;54.10;;;;;;5128970;27;45361;-71
2023/04/22 01:53:05;;;;;;;2.35;1.80;;;15.10;54.10;;;;;;5129043;27;45233;-71
2023/04/22 01:55:34;;;;;;;1.98;1.77;;;15.10;54.10;;;;;;5129207;27;45538;-71
2023/04/22 01:58:03;;;;;;;1.67;1.58;;;15.10;54.10;;;;;;5128678;27;46970;-72
2023/04/22 02:00:30;;;;;;;1.67;1.45;;;15.00;54.10;;;;;;5128745;27;45260;-71
2023/04/22 02:02:57;;;;;;;1.70;1.60;;;15.00;54.10;;;;;;5128717;27;45138;-71
2023/04/22 02:05:24;;;;;;;1.45;1.35;;;15.00;54.20;;;;;;5129165;27;45442;-71
2023/04/22 02:07:51;;;;;;;1.58;1.48;;;15.00;54.10;;;;;;5128538;27;45312;-71
2023/04/22 02:10:18;;;;;;;1.60;1.50;;;15.00;54.10;;;;;;5128581;27;45370;-71
2023/04/22 02:12:45;;;;;;;1.98;1.67;;;15.00;54.20;;;;;;5128303;27;45344;-71
2023/04/22 02:15:13;;;;;;;1.42;1.30;;;15.00;54.20;;;;;;5128748;27;45256;-71
2023/04/22 02:17:41;;;;;;;1.92;1.38;;;15.00;54.50;;;;;;5128221;27;45316;-71
2023/04/22 02:20:10;;;;;;;2.08;1.50;;;14.90;54.10;;;;;;5128529;27;45309;-71
2023/04/22 02:22:36;;;;;;;1.70;1.60;;;15.00;54.20;;;;;;5128386;27;45391;-71
2023/04/22 02:25:04;;;;;;;3.30;1.90;;;14.90;54.10;;;;;;5128343;27;45254;-71
2023/04/22 02:27:30;;;;;;;2.30;1.35;;;15.00;54.20;;;;;;5128107;27;45300;-72
2023/04/22 02:29:57;;;;;;;1.58;1.40;;;15.00;54.20;;;;;;5128345;27;45219;-72
2023/04/22 02:32:25;;;;;;;2.80;1.63;;;15.00;54.20;;;;;;5128541;27;45264;-71
2023/04/22 02:34:52;;;;;;;1.90;1.40;;;14.90;54.10;;;;;;5128529;27;45265;-71
2023/04/22 02:37:20;;;;;;;1.60;1.50;;;14.90;54.10;;;;;;5128223;27;46441;-71
2023/04/22 02:39:47;;;;;;;1.23;1.13;;;14.90;54.20;;;;;;5127146;27;45500;-72
2023/04/22 02:42:14;;;;;;;1.60;1.50;;;14.90;54.20;;;;;;5128331;27;45288;-71
2023/04/22 02:44:41;;;;;;;1.55;1.45;;;14.90;54.20;;;;;;5128094;27;45663;-71
2023/04/22 02:47:08;;;;;;;2.00;1.35;;;14.90;54.30;;;;;;5127884;27;46662;-71
2023/04/22 02:49:36;;;;;;;1.80;1.40;;;14.90;54.20;;;;;;5128044;27;45343;-71
2023/04/22 02:52:03;;;;;;;1.83;1.38;;;14.80;54.20;;;;;;5128035;27;45233;-71
2023/04/22 02:54:29;;;;;;;2.03;1.35;;;14.80;54.20;;;;;;5128263;27;45392;-72
2023/04/22 02:56:57;;;;;;;1.70;1.40;;;14.80;54.20;;;;;;5127230;27;46356;-70
2023/04/22 02:59:23;;;;;;;1.63;1.50;;;14.80;54.20;;;;;;5127739;27;45350;-70
2023/04/22 03:01:50;;;;;;;1.65;1.55;;;14.80;54.20;;;;;;5127930;27;45318;-71
2023/04/22 03:04:17;;;;;;;1.42;1.33;;;14.80;54.20;;;;;;5127994;27;45305;-71
2023/04/22 03:06:45;;;;;;;2.13;1.40;;;14.80;54.20;;;;;;5127718;27;45399;-71
2023/04/22 03:09:12;;;;;;;1.80;1.70;;;14.80;54.20;;;;;;5127800;27;45312;-72
2023/04/22 03:11:39;;;;;;;1.50;1.40;;;14.80;54.20;;;;;;5127780;27;45330;-71
2023/04/22 03:14:05;;;;;;;1.80;1.70;;;14.80;54.60;;;;;;5127804;27;45435;-71
2023/04/22 03:16:33;;;;;;;1.30;1.20;;;14.80;54.20;;;;;;5127545;27;46492;-72
2023/04/22 03:18:59;;;;;;;2.00;1.52;;;14.80;54.20;;;;;;5127680;27;45393;-71
2023/04/22 03:21:27;;;;;;;1.55;1.20;;;14.80;54.20;;;;;;5127646;27;45329;-72
2023/04/22 03:23:55;;;;;;;1.95;1.67;;;14.80;54.30;;;;;;5127643;27;45600;-71
2023/04/22 03:26:22;;;;;;;1.20;1.17;;;14.70;54.20;;;;;;5127337;27;45601;-72
2023/04/22 03:28:49;;;;;;;1.50;1.40;;;14.70;54.20;;;;;;5126335;27;45411;-71
2023/04/22 03:31:16;;;;;;;1.48;1.38;;;14.70;54.20;;;;;;5127605;27;45253;-71
2023/04/22 03:33:43;;;;;;;1.13;1.10;;;14.70;54.20;;;;;;5127725;27;45302;-70
2023/04/22 03:36:09;;;;;;;1.67;1.50;;;14.70;54.20;;;;;;5129192;27;46474;-72
2023/04/22 03:38:36;;;;;;;1.48;1.38;;;14.70;54.20;;;;;;5130819;27;45365;-72
2023/04/22 03:41:04;;;;;;;2.13;1.55;;;14.70;54.30;;;;;;5130059;27;45450;-71
2023/04/22 03:43:31;;;;;;;1.27;1.17;;;14.70;54.20;;;;;;5131316;27;45190;-71
2023/04/22 03:45:59;;;;;;;1.15;1.13;;;14.70;54.20;;;;;;5130663;27;45406;-72
2023/04/22 03:48:27;;;;;;;1.13;1.02;;;14.70;54.30;;;;;;5130900;27;45289;-71
2023/04/22 03:50:54;;;;;;;1.20;1.15;;;14.70;54.30;;;;;;5130994;27;45362;-71
2023/04/22 03:53:21;;;;;;;2.30;1.30;;;14.60;54.20;;;;;;5130662;27;45332;-71
2023/04/22 03:55:48;;;;;;;2.05;1.20;;;14.70;54.20;;;;;;5130828;27;45314;-71
2023/04/22 03:58:16;;;;;;;1.88;1.50;;;14.70;54.20;;;;;;5130804;27;45257;-71
2023/04/22 04:00:43;;;;;;;1.52;1.25;;;14.60;54.20;;;;;;5130766;27;45290;-71
2023/04/22 04:03:09;;;;;;;2.17;1.60;;;14.60;54.30;;;;;;5131023;27;45449;-71
2023/04/22 04:05:36;;;;;;;1.70;1.60;;;14.60;54.30;;;;;;5130477;27;45539;-72
2023/04/22 04:08:03;;;;;;;2.72;1.70;;;14.60;54.30;;;;;;5130919;27;45338;-71
2023/04/22 04:10:30;;;;;;;2.63;1.48;;;14.60;54.30;;;;;;5130741;27;45497;-71
2023/04/22 04:12:57;;;;;;;3.63;1.40;;;14.60;54.30;;;;;;5130737;27;45292;-72
2023/04/22 04:15:25;;;;;;;3.13;1.63;;;14.60;54.30;;;;;;5130404;27;46993;-72
2023/04/22 04:17:52;;;;;;;2.13;1.52;;;14.50;54.30;;;;;;5130287;27;45327;-71
2023/04/22 04:20:19;;;;;;;3.05;1.52;;;14.60;54.30;;;;;;5130362;27;45292;-72
2023/04/22 04:22:46;;;;;;;1.80;1.70;;;14.60;54.30;;;;;;5130231;27;45300;-71
2023/04/22 04:25:12;;;;;;;3.65;1.60;;;14.50;54.30;;;;;;5130174;27;45323;-71
2023/04/22 04:27:40;;;;;;;2.00;1.50;;;14.50;54.20;;;;;;5130089;27;45294;-71
2023/04/22 04:30:08;;;;;;;1.90;1.40;;;14.50;54.20;;;;;;5130439;27;45303;-71
2023/04/22 04:32:36;;;;;;;1.90;1.65;;;14.50;54.20;;;;;;5130581;27;45332;-71
2023/04/22 04:35:03;;;;;;;2.97;1.88;;;14.50;54.20;;;;;;5129828;27;45487;-71
2023/04/22 04:37:30;;;;;;;1.60;1.30;;;14.50;54.20;;;;;;5130258;27;45385;-71
2023/04/22 04:39:58;;;;;;;1.75;1.42;;;14.50;54.20;;;;;;5130144;27;45319;-71
2023/04/22 04:42:25;;;;;;;2.75;1.88;;;14.50;54.20;;;;;;5129512;27;45463;-71
2023/04/22 04:44:53;;;;;;;1.90;1.67;;;14.50;54.30;;;;;;5129645;27;45411;-72
2023/04/22 04:47:21;;;;;;;1.40;1.30;;;14.40;54.20;;;;;;5129919;27;45336;-71
2023/04/22 04:49:52;;;;;;;1.58;1.48;;;14.50;54.20;;;;;;5130014;27;45271;-72
2023/04/22 04:52:18;;;;;;;2.03;1.52;;;14.50;54.30;;;;;;5130060;27;45442;-72
2023/04/22 04:54:45;;;;;;;2.20;1.50;;;14.50;54.30;;;;;;5130048;27;45427;-72
2023/04/22 04:57:12;;;;;;;3.20;1.50;;;14.50;54.20;;;;;;5128509;27;45398;-71
2023/04/22 04:59:39;;;;;;;1.58;1.45;;;14.50;54.20;;;;;;5129844;27;45269;-71
2023/04/22 05:02:05;;;;;;;1.58;1.23;;;14.40;54.20;;;;;;5130053;27;45384;-72
2023/04/22 05:04:32;;;;;;;1.92;1.50;;;14.40;54.20;;;;;;5129422;27;46749;-72
2023/04/22 05:07:00;;;;;;;1.73;1.42;;;14.40;54.20;;;;;;5128424;27;45671;-71
2023/04/22 05:09:27;;;;;;;1.73;1.48;;;14.40;54.20;;;;;;5129442;27;45317;-71
2023/04/22 05:11:54;;;;;;;1.08;1.00;;;14.40;54.10;;;;;;5128721;27;45344;-71
2023/04/22 05:14:21;;;;;;;1.98;1.65;;;14.40;54.10;;;;;;5128580;27;45714;-70
2023/04/22 05:16:48;;;;;;;1.70;1.50;;;14.40;54.20;;;;;;5129429;27;45295;-71
2023/04/22 05:19:15;;;;;;;1.55;1.10;;;14.40;54.10;;;;;;5129676;27;45293;-71
2023/04/22 05:21:41;;;;;;;1.80;1.40;;;14.40;54.10;;;;;;5129676;27;45384;-72
2023/04/22 05:24:09;;;;;;;1.35;1.25;;;14.40;54.10;;;;;;5129320;27;46428;-71
2023/04/22 05:26:36;;;;;;;1.63;1.20;;;14.40;54.10;;;;;;5129394;27;45382;-72
2023/04/22 05:29:03;;;;;;;1.60;1.10;;;14.40;54.10;;;;;;5128891;27;45391;-71
2023/04/22 05:31:30;;;;;;;1.27;1.17;;;14.40;54.10;;;;;;5129462;27;45239;-71
2023/04/22 05:33:57;;;;;;;1.30;1.20;;;14.40;54.00;;;;;;5129206;27;46701;-71
2023/04/22 05:36:24;;;;;;;1.67;1.38;;;14.40;54.00;;;;;;5129210;27;45280;-72
2023/04/22 05:38:50;;;;;;;1.63;1.35;;;14.40;54.00;;;;;;5129409;27;45281;-71
2023/04/22 05:41:18;;;;;;;1.73;1.30;;;14.40;54.00;;;;;;5129062;27;45338;-72
2023/04/22 05:43:45;;;;;;;1.70;1.30;;;14.40;54.00;;;;;;5128996;27;46430;-72
2023/04/22 05:46:12;;;;;;;2.38;1.40;;;14.40;54.30;;;;;;5128948;27;45135;-72
2023/04/22 05:48:39;;;;;;;1.65;1.17;;;14.40;54.00;;;;;;5129154;27;45237;-71
2023/04/22 05:51:06;;;;;;;1.65;1.33;;;14.40;54.50;;;;;;5128666;27;45395;-71
2023/04/22 05:53:32;;;;;;;1.23;1.08;;;14.40;53.90;;;;;;5128899;27;46672;-71
2023/04/22 05:55:59;;;;;;;1.63;1.48;;;14.40;53.90;;;;;;5128824;27;45312;-71
2023/04/22 05:58:27;;;;;;;1.48;1.38;;;14.40;53.90;;;;;;5128317;27;45287;-72
2023/04/22 06:00:54;;;;;;;1.48;1.30;;;14.40;53.90;;;;;;5128650;27;45479;-71
2023/04/22 06:03:21;;;;;;;1.42;1.10;;;14.40;53.90;;;;;;5128793;27;46398;-71
2023/04/22 06:05:48;;;;;;;1.60;1.33;;;14.40;53.80;;;;;;5128900;27;45328;-71
2023/04/22 06:08:15;;;;;;;1.65;1.40;;;14.40;53.80;;;;;;5129099;27;45272;-71
2023/04/22 06:10:41;;;;;;;1.55;1.20;;;14.40;53.80;;;;;;5129065;27;45184;-71
2023/04/22 06:13:08;;;;;;;1.27;1.17;;;14.40;53.80;;;;;;5128641;27;46274;-71
2023/04/22 06:15:36;;;;;;;1.73;1.17;;;14.50;53.80;;;;;;5128929;27;45283;-71
2023/04/22 06:18:03;;;;;;;1.67;1.58;;;14.40;53.70;;;;;;5128629;27;45391;-72
2023/04/22 06:20:31;;;;;;;1.30;1.20;;;14.50;53.70;;;;;;5128782;27;45392;-72
2023/04/22 06:22:58;;;;;;;1.45;1.30;;;14.40;53.70;;;;;;5128769;27;46434;-72
2023/04/22 06:25:25;;;;;;;1.60;1.30;;;14.50;53.70;;;;;;5128952;27;45277;-71
2023/04/22 06:27:51;;;;;;;1.35;1.10;;;14.50;53.60;;;;;;5128618;27;45325;-70
2023/04/22 06:30:18;;;;;;;2.92;1.17;;;14.50;53.60;;;;;;5128761;27;45349;-71
2023/04/22 06:32:46;;;;;;;1.85;1.50;;;14.50;53.60;;;;;;5127584;27;45454;-71
2023/04/22 06:35:13;;;;;;;1.75;1.20;;;14.50;53.60;;;;;;5128405;27;45252;-71
2023/04/22 06:37:40;;;;;;;1.30;1.13;;;14.50;53.60;;;;;;5128509;27;45301;-71
2023/04/22 06:40:08;;;;;;;1.30;1.20;;;14.50;53.60;;;;;;5128551;27;45420;-72
2023/04/22 06:42:35;;;;;;;1.55;1.08;;;14.50;53.60;;;;;;5128167;27;46476;-71
2023/04/22 06:45:03;;;;;;;1.65;1.38;;;14.50;53.70;;;;;;5127988;27;45432;-71
2023/04/22 06:47:29;;;;;;;2.00;1.20;;;14.50;53.60;;;;;;5128310;27;45261;-72
2023/04/22 06:49:57;;;;;;;1.20;1.05;;;14.60;53.70;;;;;;5128530;27;45254;-72
2023/04/22 06:52:24;;;;;;;1.77;1.20;;;14.50;53.60;;;;;;5127958;27;46500;-71
2023/04/22 06:54:51;;;;;;;1.33;1.15;;;14.60;53.70;;;;;;5128118;27;45361;-72
2023/04/22 06:57:18;;;;;;;1.38;1.10;;;14.60;53.60;;;;;;5128316;27;45312;-71
2023/04/22 06:59:45;;;;;;;1.38;1.27;;;14.60;53.60;;;;;;5128293;27;45261;-71
2023/04/22 07:02:11;;;;;;;1.77;1.30;;;14.60;53.60;;;;;;5127873;27;46357;-71
2023/04/22 07:04:38;;;;;;;1.30;1.20;;;14.60;53.60;;;;;;5127934;27;45407;-72
2023/04/22 07:07:06;;;;;;;1.30;1.20;;;14.60;53.60;;;;;;5128205;27;45317;-71
2023/04/22 07:09:34;;;;;;;1.67;1.23;;;14.60;53.70;;;;;;5128179;27;45518;-71
2023/04/22 07:12:01;;;;;;;1.40;1.30;;;14.60;53.60;;;;;;5127848;27;47769;-72
2023/04/22 07:14:28;;;;;;;1.33;1.23;;;14.60;53.60;;;;;;5127603;27;45308;-71
2023/04/22 07:16:55;;;;;;;1.98;1.40;;;14.60;53.60;;;;;;5127407;27;45336;-71
2023/04/22 07:19:22;;;;;;;2.03;1.35;;;14.70;53.60;;;;;;5128125;27;45408;-71
2023/04/22 07:21:48;;;;;;;1.05;1.05;;;14.70;53.60;;;;;;5127715;27;45333;-71
2023/04/22 07:24:17;;;;;;;1.77;1.23;;;14.70;53.50;;;;;;5127802;27;45318;-71
2023/04/22 07:26:43;;;;;;;1.67;1.40;;;14.70;53.50;;;;;;5127765;27;45309;-72
2023/04/22 07:29:11;;;;;;;1.88;1.27;;;14.70;53.50;;;;;;5127871;27;45363;-71
2023/04/22 07:31:38;;;;;;;1.15;1.05;;;14.70;53.50;;;;;;5127354;27;46832;-71
2023/04/22 07:34:05;;;;;;;2.10;1.42;;;14.70;53.50;;;;;;5127630;27;45195;-71
2023/04/22 07:36:32;;;;;;;1.33;1.23;;;14.80;53.50;;;;;;5127788;27;45214;-71
2023/04/22 07:38:59;;;;;;;1.45;1.35;;;14.80;53.50;;;;;;5127719;27;45406;-71
2023/04/22 07:41:27;;;;;;;1.40;1.30;;;14.80;53.40;;;;;;5127194;27;46418;-71
2023/04/22 07:43:54;;;;;;;1.60;1.17;;;14.80;54.00;;;;;;5127493;27;45245;-72
2023/04/22 07:46:21;;;;;;;3.80;1.30;;;14.80;53.40;;;;;;5127295;27;45328;-71
2023/04/22 07:48:48;;;;;;;1.40;1.30;;;14.80;53.40;;;;;;5127684;27;45316;-71
2023/04/22 07:51:14;;;;;;;1.73;1.33;;;14.90;53.40;;;;;;5127196;27;45565;-72
2023/04/22 07:53:41;;;;;;;1.52;1.02;;;14.90;53.30;;;;;;5127325;27;45326;-72
2023/04/22 07:56:08;;;;;;;1.45;1.13;;;14.90;53.80;;;;;;5127317;27;45265;-72
2023/04/22 07:58:36;;;;;;;1.67;1.10;;;14.90;53.90;;;;;;5126956;27;45130;-71
2023/04/22 08:01:03;;;;;;;1.83;1.33;;;14.90;53.30;;;;;;5126874;27;47303;-71
2023/04/22 08:03:30;;;;;;;1.92;1.48;;;15.00;53.40;;;;;;5127459;27;45293;-72
2023/04/22 08:05:57;;;;;;;2.50;1.30;;;15.00;53.30;;;;;;5127314;27;45253;-71
2023/04/22 08:08:24;;;;;;;2.42;1.20;;;15.00;53.30;;;;;;5127551;27;45319;-71
2023/04/22 08:10:50;;;;;;;1.55;1.13;;;15.00;53.20;;;;;;5126946;27;46710;-71
2023/04/22 08:13:17;;;;;;;1.52;1.20;;;15.10;53.30;;;;;;5127196;27;45278;-71
2023/04/22 08:15:45;;;;;;;2.28;1.30;;;15.10;53.90;;;;;;5127205;27;45418;-72
2023/04/22 08:18:12;;;;;;;1.33;1.08;;;15.10;53.20;;;;;;5127407;27;45338;-71
2023/04/22 08:20:39;;;;;;;1.40;1.23;;;15.10;53.20;;;;;;5126778;27;46397;-72
2023/04/22 08:23:06;;;;;;;1.85;1.33;;;15.20;53.20;;;;;;5130281;27;45326;-72
2023/04/22 08:25:33;;;;;;;1.73;1.35;;;15.20;53.20;;;;;;5130824;27;45362;-72
2023/04/22 08:28:00;;;;;;;1.50;1.02;;;15.20;53.10;;;;;;5131087;27;45389;-71
2023/04/22 08:30:26;;;;;;;1.60;1.35;;;15.20;53.10;;;;;;5130490;27;45507;-71
2023/04/22 08:32:55;;;;;;;1.70;1.27;;;15.30;53.00;;;;;;5130600;27;45203;-71
2023/04/22 08:35:21;;;;;;;1.35;1.25;;;15.30;53.10;;;;;;5130807;27;45254;-71
2023/04/22 08:37:48;;;;;;;2.80;1.40;;;15.30;53.00;;;;;;5131015;27;45475;-71
2023/04/22 08:40:15;;;;;;;1.02;0.98;;;15.40;53.10;;;;;;5129471;27;46389;-71
2023/04/22 08:42:42;;;;;;;1.30;1.20;;;15.40;52.90;;;;;;5130052;27;45446;-71
2023/04/22 08:45:09;;;;;;;1.98;1.58;;;15.40;52.90;;;;;;5130000;27;45119;-71
2023/04/22 08:47:36;;;;;;;1.55;1.45;;;15.50;53.00;;;;;;5130544;27;45319;-72
2023/04/22 08:50:06;;;;;;;1.58;1.35;;;15.50;52.90;;;;;;5129703;27;45456;-72
2023/04/22 08:52:32;;;;;;;2.58;1.50;;;15.50;53.00;;;;;;5130067;27;45309;-72
2023/04/22 08:54:59;;;;;;;3.13;1.40;;;15.60;53.00;;;;;;5129972;27;45323;-73
2023/04/22 08:57:26;;;;;;;1.30;1.20;;;15.60;53.00;;;;;;5125489;27;45501;-71
2023/04/22 08:59:54;;;;;;;2.00;1.48;;;15.60;53.00;;;;;;5126629;27;45537;-71
2023/04/22 09:02:21;;;;;;;3.38;1.20;;;15.60;53.00;;;;;;5121951;27;45473;-72
2023/04/22 09:04:52;;;;;;;2.60;1.10;;;15.70;53.20;;;;;;5143133;27;45322;-72
2023/04/22 09:07:22;;;;;;;1.40;1.30;;;15.70;53.20;;;;;;5130885;27;45342;-72
2023/04/22 09:09:49;;;;;;;1.40;1.30;;;15.70;53.20;;;;;;5129856;27;46409;-71
2023/04/22 09:12:17;;;;;;;1.25;1.15;;;15.80;53.20;;;;;;5128257;27;45281;-72
2023/04/22 09:14:44;;;;;;;3.85;1.30;;;15.80;53.10;;;;;;5134315;27;45361;-72
2023/04/22 09:17:10;;;;;;;3.10;1.20;;;15.80;53.00;;;;;;5129905;27;45444;-71
2023/04/22 09:19:37;;;;;;;1.52;1.30;;;15.90;53.10;;;;;;5127961;27;46356;-74
2023/04/22 09:22:04;;;;;;;4.20;1.65;;;15.90;53.10;;;;;;5128874;27;45453;-72
2023/04/22 09:24:32;;;;;;;2.00;1.30;;;16.00;53.10;;;;;;5123640;27;45329;-74
2023/04/22 09:27:01;;;;;;;1.67;1.33;;;16.00;53.10;;;;;;5135955;27;45279;-73
2023/04/22 09:29:29;;;;;;;1.20;1.10;;;16.00;53.10;;;;;;5126294;27;45741;-73
2023/04/22 09:31:56;;;;;;;1.20;1.10;;;16.00;53.20;;;;;;5132973;27;45424;-73
2023/04/22 09:34:23;;;;;;;1.52;1.25;;;16.10;53.80;;;;;;5129626;27;45706;-72
2023/04/22 09:36:50;;;;;;;2.13;1.42;;;16.10;53.20;;;;;;5128527;27;45405;-72
2023/04/22 09:39:17;;;;;;;1.30;1.20;;;16.10;53.30;;;;;;5123935;27;46374;-73
2023/04/22 09:41:46;;;;;;;1.52;1.33;;;16.20;53.30;;;;;;5133906;27;45422;-73
2023/04/22 09:44:14;;;;;;;2.67;1.40;;;16.20;53.20;;;;;;5129455;27;45511;-73
2023/04/22 09:46:42;;;;;;;1.35;1.25;;;16.20;53.30;;;;;;5122185;27;45551;-73
2023/04/22 09:49:08;;;;;;;1.77;0.95;;;16.30;53.30;;;;;;5136070;27;45577;-73
2023/04/22 09:51:35;;;;;;;2.53;1.30;;;16.30;53.40;;;;;;5126429;27;45351;-73
2023/04/22 09:54:05;;;;;;;1.65;1.20;;;16.40;53.40;;;;;;5132451;27;45249;-73
2023/04/22 09:56:43;;;;;;;1.30;1.20;;;16.40;53.40;;;;;;5123927;27;45275;-73
2023/04/22 09:59:12;;;;;;;1.30;1.20;;;16.50;53.60;;;;;;5136591;27;46252;-72
2023/04/22 10:01:39;;;;;;;1.40;1.30;;;16.50;53.70;;;;;;5127005;27;45375;-73
2023/04/22 10:04:07;;;;;;;2.63;1.23;;;16.50;53.50;;;;;;5129468;27;45418;-73
2023/04/22 10:06:33;;;;;;;1.55;0.95;;;16.60;53.60;;;;;;5131648;27;45298;-73
2023/04/22 10:09:00;;;;;;;1.25;1.08;;;16.60;53.50;;;;;;5121443;27;45731;-73
2023/04/22 10:11:27;;;;;;;1.92;1.73;;;16.60;53.50;;;;;;5136111;27;45490;-73
2023/04/22 10:13:54;;;;;;;2.30;1.38;;;16.70;53.40;;;;;;5128396;27;45234;-72
2023/04/22 10:16:22;;;;;;;1.35;1.27;;;16.70;53.50;;;;;;5125292;27;45337;-74
2023/04/22 10:18:49;;;;;;;2.28;1.30;;;16.80;53.40;;;;;;5133311;27;45341;-73
2023/04/22 10:21:16;;;;;;;1.65;1.50;;;16.80;53.70;;;;;;5119226;27;45419;-72
2023/04/22 10:23:45;;;;;;;1.52;1.42;;;16.90;54.00;;;;;;5126472;27;45447;-73
2023/04/22 10:26:12;;;;;;;2.20;1.50;;;16.90;54.00;;;;;;5111858;27;45417;-73
2023/04/22 10:28:42;;;;;;;1.75;1.48;;;17.00;54.30;;;;;;5127849;27;46374;-73
2023/04/22 10:31:22;;;;;;;1.20;1.10;;;17.10;54.20;;;;;;5128333;27;45470;-73
2023/04/22 10:33:49;;;;;;;1.63;1.50;;;17.20;54.40;;;;;;5142230;27;45397;-72
2023/04/22 10:36:17;;;;;;;4.15;1.48;;;17.20;54.40;;;;;;5128304;27;45546;-73
2023/04/22 10:39:17;;;;;;;2.90;1.60;;;17.30;55.20;;;;;;5128528;27;45392;-73
2023/04/22 10:41:50;;;;;;;1.70;1.50;;;17.30;54.90;;;;;;5128187;27;45533;-73
2023/04/22 10:44:16;;;;;;;4.30;1.50;;;17.40;54.50;;;;;;5128220;27;45253;-73
2023/04/22 10:47:00;;;;;;;2.58;1.65;;;17.40;54.20;;;;;;5128355;27;45430;-73
2023/04/22 10:49:31;;;;;;;2.90;1.70;;;17.40;54.30;;;;;;5128099;27;45710;-73
2023/04/22 10:51:58;;;;;;;3.88;1.70;;;17.50;54.10;;;;;;5128049;27;45351;-72
2023/04/22 10:55:02;;;;;;;4.00;1.65;;;17.50;53.80;;;;;;5128485;27;45309;-73
2023/04/22 10:57:35;;;;;;;3.10;1.48;;;17.50;53.60;;;;;;5151992;27;44845;-72
2023/04/22 11:00:03;;;;;;;4.80;1.65;;;17.60;53.60;;;;;;5151885;27;45186;-72
2023/04/22 11:02:31;;;;;;;5.15;1.80;;;17.60;53.70;;;;;;5152233;27;45326;-73
2023/04/22 11:05:18;;;;;;;5.25;1.60;;;17.60;53.70;;;;;;5130570;27;45402;-73
2023/04/22 11:07:44;;;;;;;2.33;1.50;;;17.70;53.90;;;;;;5129406;27;45268;-73
2023/04/22 11:10:15;;;;;;;4.20;1.60;;;17.70;53.80;;;;;;5128463;27;45655;-73
2023/04/22 11:12:43;;;;;;;3.70;1.50;;;17.70;53.80;;;;;;5128328;27;45365;-74
2023/04/22 11:15:11;;;;;;;2.33;1.55;;;17.70;53.80;;;;;;5130126;27;45347;-73
2023/04/22 11:17:39;;;;;;;2.72;1.60;;;17.70;53.80;;;;;;5128800;27;45232;-74
2023/04/22 11:20:07;;;;;;;3.17;1.45;;;17.70;53.80;;;;;;5127790;27;45367;-73
2023/04/22 11:22:35;;;;;;;4.55;1.60;;;17.70;53.70;;;;;;5127828;27;45266;-73
2023/04/22 11:25:02;;;;;;;3.33;1.65;;;17.80;53.70;;;;;;5128004;27;45383;-73
2023/04/22 11:27:29;;;;;;;1.67;1.17;;;17.80;53.70;;;;;;5127957;27;45376;-73
2023/04/22 11:30:02;;;;;;;2.20;1.70;;;17.80;53.70;;;;;;5127933;27;45492;-73
2023/04/22 11:32:29;;;;;;;4.10;1.70;;;17.90;53.60;;;;;;5127690;27;45245;-73
2023/04/22 11:34:57;;;;;;;2.75;1.70;;;17.90;53.40;;;;;;5127862;27;45344;-73
2023/04/22 11:37:24;;;;;;;1.90;1.42;;;18.00;53.40;;;;;;5128448;27;45397;-73
2023/04/22 11:39:51;;;;;;;2.13;1.58;;;18.10;53.30;;;;;;5127423;27;45487;-74
2023/04/22 11:42:21;;;;;;;1.67;1.50;;;18.00;53.30;;;;;;5127285;27;45270;-72
2023/04/22 11:44:48;;;;;;;3.38;1.73;;;18.00;53.40;;;;;;5127623;27;45413;-73
2023/04/22 11:47:14;;;;;;;2.83;1.70;;;18.00;53.40;;;;;;5127916;27;45334;-74
2023/04/22 11:49:41;;;;;;;2.13;1.58;;;18.00;53.40;;;;;;5128034;27;46680;-73
2023/04/22 11:52:09;;;;;;;2.30;1.90;;;18.00;53.40;;;;;;5129259;27;45339;-73
2023/04/22 11:54:37;;;;;;;3.05;1.65;;;18.00;53.70;;;;;;5130367;27;45386;-74
2023/04/22 11:57:04;;;;;;;3.15;1.73;;;18.00;53.70;;;;;;5131694;27;45374;-73
2023/04/22 11:59:31;;;;;;;2.38;1.77;;;18.00;53.70;;;;;;5135586;27;46324;-73
2023/04/22 12:01:58;;;;;;;4.63;1.77;;;18.00;53.80;;;;;;5132001;27;45281;-73
2023/04/22 12:04:24;;;;;;;2.17;1.80;;;18.00;53.60;;;;;;5131177;27;45336;-73
2023/04/22 12:06:51;;;;;;;1.67;1.58;;;18.10;53.70;;;;;;5130905;27;45423;-73
2023/04/22 12:09:20;;;;;;;2.50;1.75;;;18.10;53.70;;;;;;5130590;27;46322;-74
2023/04/22 12:11:46;;;;;;;2.58;1.63;;;18.10;53.70;;;;;;5129902;27;45303;-73
2023/04/22 12:14:13;;;;;;;2.00;1.77;;;18.10;53.60;;;;;;5130579;27;45384;-73
2023/04/22 12:16:40;;;;;;;3.67;2.08;;;18.10;53.90;;;;;;5130269;27;45594;-74
2023/04/22 12:19:07;;;;;;;4.22;1.80;;;18.10;53.70;;;;;;5129153;27;47176;-70
2023/04/22 12:21:34;;;;;;;4.32;1.67;;;18.20;53.90;;;;;;5123736;27;45471;-72
2023/04/22 12:24:03;;;;;;;1.90;1.80;;;18.20;53.80;;;;;;5122979;27;45705;-72
2023/04/22 12:26:31;;;;;;;1.90;1.80;;;18.30;53.70;;;;;;5133709;27;45447;-71
2023/04/22 12:28:59;;;;;;;2.33;1.83;;;18.40;53.70;;;;;;5128015;27;45443;-74
2023/04/22 12:31:26;;;;;;;2.03;1.70;;;18.40;53.50;;;;;;5129793;27;45270;-73
2023/04/22 12:33:53;;;;;;;3.00;2.00;;;18.50;53.60;;;;;;5135821;27;45472;-74
2023/04/22 12:36:20;;;;;;;4.55;2.17;;;18.50;53.60;;;;;;5128955;27;45396;-73
2023/04/22 12:38:47;;;;;;;3.03;2.20;;;18.60;53.60;;;;;;5150691;27;46648;-73
2023/04/22 12:41:14;;;;;;;4.30;2.15;;;18.60;53.70;;;;;;5135277;27;45525;-73
2023/04/22 12:43:42;;;;;;;4.28;2.42;;;18.60;53.60;;;;;;5144718;27;45291;-74
2023/04/22 12:46:09;;;;;;;6.88;2.03;;;18.70;53.70;;;;;;5135468;27;45265;-73
2023/04/22 12:48:36;;;;;;;2.92;2.15;;;18.70;53.80;;;;;;5129687;27;45434;-75